Pass Lake, Canada
Current Conditions -  °F | °C
As of 7:00 PM on Tuesday 25 Nov 2014 (Local Time) from CYQT Reporting Station
Overcast Overcast  
Wind Chill:   Ceiling: 4900
Heat Index: 10°   Visibility: 15mi
Dew Point:   Wind: 5mph
Humidity: 79%   Direction: 290°WNW
Pressure: 30.02"   Gusts: NA
Location:  48.57°N, 88.73°W
Report Text: CYQT 260000Z 29004KT 15SM OVC049 M12/M15 A3002 RMK SC8 SLP184
Loading
Personal Weather Stations






























Interactive Weather Map New forecast layout! Learn more

10-Day Weather Forecast

Advertisements
Track Severe Weather on mobile